Time;durP1;ratioP1;P1;durP2;ratioP2;P2;SDS_P1;SDS_P2;PMS_P1;PMS_P2;Temp;Humidity;BMP_temperature;BMP_pressure;BME280_temperature;BME280_humidity;BME280_pressure;Samples;Min_cycle;Max_cycle;Signal;HPM_P1;HPM_P2
2023/09/11 00:00:23;;;;;;;14.97;12.17;;;24.80;1.00;;;;;;5078037;28;20480;-82
2023/09/11 00:02:48;;;;;;;20.37;12.60;;;24.80;1.00;;;;;;5080524;28;20191;-83
2023/09/11 00:05:14;;;;;;;13.93;12.53;;;24.70;1.00;;;;;;5087604;28;20650;-83
2023/09/11 00:07:39;;;;;;;16.40;12.30;;;24.70;1.00;;;;;;5083336;28;20225;-84
2023/09/11 00:10:05;;;;;;;14.07;12.40;;;24.70;1.00;;;;;;5079991;28;20212;-84
2023/09/11 00:12:31;;;;;;;14.17;12.50;;;24.60;1.00;;;;;;5077654;28;20194;-82
2023/09/11 00:14:57;;;;;;;19.23;12.33;;;24.60;1.00;;;;;;5084694;28;20513;-83
2023/09/11 00:17:22;;;;;;;13.97;12.37;;;24.60;1.00;;;;;;5073264;28;20186;-83
2023/09/11 00:19:48;;;;;;;17.30;11.70;;;24.60;1.00;;;;;;5081295;28;20287;-83
2023/09/11 00:22:13;;;;;;;18.50;11.80;;;24.60;1.00;;;;;;5080819;28;20196;-83
2023/09/11 00:24:39;;;;;;;18.87;13.23;;;24.60;1.00;;;;;;5080360;28;20185;-82
2023/09/11 00:27:04;;;;;;;14.40;12.90;;;24.60;1.00;;;;;;5076471;28;20577;-83
2023/09/11 00:29:30;;;;;;;13.63;12.43;;;24.60;1.00;;;;;;5082599;28;20211;-82
2023/09/11 00:31:56;;;;;;;20.20;12.40;;;24.60;1.00;;;;;;5080933;28;20174;-83
2023/09/11 00:34:21;;;;;;;17.80;13.00;;;24.50;1.00;;;;;;5075412;28;20182;-82
2023/09/11 00:36:47;;;;;;;17.70;12.70;;;24.40;1.00;;;;;;5079544;28;20591;-83
2023/09/11 00:39:12;;;;;;;20.87;12.83;;;24.30;1.00;;;;;;5076342;28;20703;-82
2023/09/11 00:41:40;;;;;;;20.00;12.17;;;24.30;1.00;;;;;;5074216;28;20555;-81
2023/09/11 00:44:06;;;;;;;14.13;12.15;;;24.20;1.00;;;;;;5075839;28;20181;-82
2023/09/11 00:46:31;;;;;;;13.07;11.80;;;24.30;1.00;;;;;;5073780;28;20216;-81
2023/09/11 00:48:57;;;;;;;12.77;11.33;;;24.30;1.00;;;;;;5066687;28;20212;-81
2023/09/11 00:51:22;;;;;;;18.37;11.57;;;24.30;1.00;;;;;;5074810;28;20694;-83
2023/09/11 00:53:49;;;;;;;13.40;11.23;;;24.20;1.00;;;;;;5077218;28;20182;-82
2023/09/11 00:56:15;;;;;;;19.73;13.20;;;24.10;1.00;;;;;;5078157;28;20177;-82
2023/09/11 00:58:42;;;;;;;14.30;12.20;;;24.10;55.20;;;;;;5068366;28;20455;-82
2023/09/11 01:01:09;;;;;;;15.07;13.60;;;24.00;99.90;;;;;;5069056;28;20469;-82
2023/09/11 01:03:36;;;;;;;18.37;12.70;;;24.00;99.90;;;;;;5066784;28;20434;-81
2023/09/11 01:06:02;;;;;;;15.90;12.83;;;24.00;99.90;;;;;;5078008;28;20470;-84
2023/09/11 01:08:28;;;;;;;17.63;13.17;;;24.00;99.90;;;;;;5071921;28;20476;-80
2023/09/11 01:10:54;;;;;;;15.97;13.60;;;23.80;1.00;;;;;;5066613;28;20451;-82
2023/09/11 01:13:21;;;;;;;17.20;13.37;;;23.70;37.30;;;;;;5061824;28;20671;-81
2023/09/11 01:16:13;;;;;;;17.60;12.60;;;23.70;99.90;;;;;;5072729;28;20446;-81
2023/09/11 01:19:01;;;;;;;13.80;12.53;;;23.60;95.50;;;;;;5077740;28;20459;-83
2023/09/11 01:21:36;;;;;;;19.83;14.50;;;23.50;1.00;;;;;;5093686;28;20471;-81
2023/09/11 01:24:32;;;;;;;17.93;13.77;;;23.40;1.00;;;;;;5073192;28;20430;-82
2023/09/11 01:27:25;;;;;;;18.70;13.70;;;23.30;99.90;;;;;;5076717;28;20809;-82
2023/09/11 01:29:52;;;;;;;20.03;14.20;;;23.20;99.90;;;;;;5073919;28;20468;-81
2023/09/11 01:32:19;;;;;;;17.33;13.43;;;23.20;99.90;;;;;;5078310;28;20446;-81
2023/09/11 01:34:44;;;;;;;16.07;13.50;;;23.20;1.00;;;;;;5069705;28;20448;-82
2023/09/11 01:37:10;;;;;;;19.43;13.80;;;23.30;1.00;;;;;;5066403;28;20436;-82
2023/09/11 01:39:35;;;;;;;15.73;14.13;;;23.20;1.00;;;;;;5072472;28;20233;-82
2023/09/11 01:42:09;;;;;;;17.10;13.83;;;23.30;1.00;;;;;;5071812;28;20212;-81
2023/09/11 01:44:42;;;;;;;22.43;13.87;;;23.30;99.90;;;;;;5063820;28;20194;-82
2023/09/11 01:47:09;;;;;;;17.00;13.20;;;23.30;99.90;;;;;;5078605;28;20446;-81
2023/09/11 01:49:37;;;;;;;19.40;13.90;;;23.40;99.90;;;;;;5067105;28;20463;-81
2023/09/11 01:52:03;;;;;;;16.07;14.10;;;23.40;99.90;;;;;;5071458;28;20816;-83
2023/09/11 01:54:29;;;;;;;16.97;14.17;;;23.40;99.90;;;;;;5086769;28;20431;-81
2023/09/11 01:56:55;;;;;;;21.30;13.60;;;23.40;60.10;;;;;;5078915;28;20441;-81
2023/09/11 01:59:20;;;;;;;22.80;15.43;;;23.40;47.00;;;;;;5061107;28;20200;-81
2023/09/11 02:01:46;;;;;;;16.90;13.20;;;23.40;15.60;;;;;;5068884;28;20236;-81
2023/09/11 02:04:11;;;;;;;18.50;13.33;;;23.30;52.30;;;;;;5071045;28;20200;-82
2023/09/11 02:06:37;;;;;;;18.43;13.43;;;23.30;39.60;;;;;;5068914;28;20221;-81
2023/09/11 02:09:03;;;;;;;18.57;13.83;;;23.30;42.50;;;;;;5061382;28;20284;-82
2023/09/11 02:11:29;;;;;;;19.83;15.50;;;23.30;95.30;;;;;;5057208;28;20206;-80
2023/09/11 02:13:54;;;;;;;18.43;15.30;;;23.30;99.90;;;;;;5071810;28;20505;-81
2023/09/11 02:16:20;;;;;;;22.93;15.63;;;23.20;99.90;;;;;;5071124;28;20190;-80
2023/09/11 02:18:45;;;;;;;16.97;15.37;;;23.20;99.90;;;;;;5069053;28;20229;-81
2023/09/11 02:21:11;;;;;;;15.67;13.83;;;23.20;99.90;;;;;;5060107;28;21145;-81
2023/09/11 02:23:37;;;;;;;21.03;15.00;;;23.20;99.90;;;;;;5067604;28;20891;-82
2023/09/11 02:26:02;;;;;;;17.10;14.00;;;23.20;99.90;;;;;;5072812;28;20196;-81
2023/09/11 02:28:28;;;;;;;14.87;13.10;;;23.20;99.90;;;;;;5070983;28;20228;-82
2023/09/11 02:30:54;;;;;;;18.10;14.27;;;23.20;99.90;;;;;;5073614;28;20233;-82
2023/09/11 02:33:19;;;;;;;18.60;14.07;;;23.10;99.90;;;;;;5057207;28;20171;-82
2023/09/11 02:35:45;;;;;;;16.53;14.77;;;23.00;1.00;;;;;;5070301;28;20192;-79
2023/09/11 02:38:10;;;;;;;22.50;14.40;;;22.90;1.00;;;;;;5073370;28;20249;-82
2023/09/11 02:40:37;;;;;;;20.90;14.00;;;22.90;1.00;;;;;;5068817;28;20276;-82
2023/09/11 02:43:03;;;;;;;15.20;13.80;;;22.80;91.30;;;;;;5076613;28;20268;-82
2023/09/11 02:45:28;;;;;;;15.20;13.60;;;22.80;99.90;;;;;;5066975;28;20495;-81
2023/09/11 02:47:54;;;;;;;16.67;12.73;;;22.80;99.90;;;;;;5075851;28;20467;-83
2023/09/11 02:50:19;;;;;;;16.43;13.90;;;22.80;99.90;;;;;;5073726;28;20205;-84
2023/09/11 02:52:45;;;;;;;14.43;12.60;;;22.80;99.90;;;;;;5072385;28;20186;-81
2023/09/11 02:55:11;;;;;;;17.30;13.13;;;22.80;99.90;;;;;;5082180;28;20189;-81
2023/09/11 02:57:38;;;;;;;23.60;13.17;;;22.80;99.90;;;;;;5082874;28;20189;-84
2023/09/11 03:00:05;;;;;;;16.40;13.93;;;22.70;99.90;;;;;;5075977;28;20451;-83
2023/09/11 03:02:31;;;;;;;16.97;14.30;;;22.70;99.90;;;;;;5078792;28;20451;-80
2023/09/11 03:04:56;;;;;;;17.77;13.97;;;22.60;99.90;;;;;;5074251;28;20443;-82
2023/09/11 03:07:22;;;;;;;16.37;12.60;;;22.60;99.90;;;;;;5064457;28;20178;-82
2023/09/11 03:09:47;;;;;;;15.27;12.27;;;22.60;99.90;;;;;;5077438;28;20207;-83
2023/09/11 03:12:13;;;;;;;15.50;13.33;;;22.60;99.90;;;;;;5078703;28;20260;-83
2023/09/11 03:14:41;;;;;;;19.27;12.50;;;22.60;99.90;;;;;;5074838;28;20757;-82
2023/09/11 03:17:07;;;;;;;17.47;13.03;;;22.50;99.90;;;;;;5069055;28;20180;-82
2023/09/11 03:19:34;;;;;;;13.63;12.43;;;22.50;99.90;;;;;;5068421;28;20451;-80
2023/09/11 03:21:59;;;;;;;16.53;13.00;;;22.50;99.90;;;;;;5065124;28;20182;-83
2023/09/11 03:24:25;;;;;;;16.60;13.60;;;22.50;99.90;;;;;;5079121;28;20450;-83
2023/09/11 03:26:50;;;;;;;15.63;12.73;;;22.50;99.90;;;;;;5077215;28;20686;-82
2023/09/11 03:29:17;;;;;;;19.77;13.73;;;22.50;99.90;;;;;;5069091;28;20202;-82
2023/09/11 03:31:42;;;;;;;23.93;14.13;;;22.50;99.90;;;;;;5077104;28;20185;-83
2023/09/11 03:34:08;;;;;;;21.70;13.73;;;22.50;99.90;;;;;;5077095;28;20522;-84
2023/09/11 03:36:33;;;;;;;15.90;12.90;;;22.50;99.90;;;;;;5071953;28;20192;-80
2023/09/11 03:38:59;;;;;;;20.47;12.87;;;22.50;99.90;;;;;;5079527;28;20196;-83
2023/09/11 03:41:25;;;;;;;19.13;13.13;;;22.50;99.90;;;;;;5071801;28;20252;-84
2023/09/11 03:43:50;;;;;;;18.07;12.33;;;22.40;99.90;;;;;;5070450;28;20189;-83
2023/09/11 03:46:16;;;;;;;17.10;12.43;;;22.40;99.90;;;;;;5064617;28;20264;-84
2023/09/11 03:48:41;;;;;;;14.77;13.37;;;22.40;99.90;;;;;;5068657;28;20220;-83
2023/09/11 03:51:07;;;;;;;17.60;13.00;;;22.40;99.90;;;;;;5079251;28;20209;-83
2023/09/11 03:53:33;;;;;;;17.77;11.90;;;22.40;99.90;;;;;;5078638;28;20207;-83
2023/09/11 03:55:59;;;;;;;18.20;13.30;;;22.40;99.90;;;;;;5080435;28;20775;-83
2023/09/11 03:58:25;;;;;;;15.00;13.40;;;22.30;1.00;;;;;;5068323;28;20436;-82
2023/09/11 04:00:50;;;;;;;16.07;13.17;;;22.20;1.00;;;;;;5062414;28;20202;-84
2023/09/11 04:03:16;;;;;;;15.43;13.73;;;22.20;1.00;;;;;;5079572;28;20224;-83
2023/09/11 04:05:41;;;;;;;14.50;12.77;;;22.20;1.00;;;;;;5078698;28;20185;-82
2023/09/11 04:08:08;;;;;;;19.80;13.40;;;22.20;1.00;;;;;;5071878;28;20221;-79
2023/09/11 04:10:34;;;;;;;18.70;14.27;;;22.10;1.00;;;;;;5076786;28;20292;-82
2023/09/11 04:12:59;;;;;;;19.07;14.13;;;22.10;19.50;;;;;;5079628;28;20443;-82
2023/09/11 04:15:25;;;;;;;25.50;15.10;;;22.10;99.90;;;;;;5095010;28;20291;-83
2023/09/11 04:17:54;;;;;;;17.67;13.23;;;21.90;99.90;;;;;;5080516;28;20186;-82
2023/09/11 04:20:20;;;;;;;15.13;13.40;;;21.90;1.00;;;;;;5081032;28;20228;-79
2023/09/11 04:22:46;;;;;;;20.53;12.70;;;21.80;1.00;;;;;;5081236;28;20411;-83
2023/09/11 04:25:11;;;;;;;14.00;12.50;;;21.80;1.00;;;;;;5079778;28;20459;-82
2023/09/11 04:27:37;;;;;;;20.30;12.77;;;21.80;99.90;;;;;;5081479;28;20205;-83
2023/09/11 04:30:03;;;;;;;15.50;12.60;;;21.80;99.90;;;;;;5085463;28;20201;-80
2023/09/11 04:32:30;;;;;;;21.23;13.10;;;21.70;99.90;;;;;;5085301;28;20591;-84
2023/09/11 04:34:55;;;;;;;17.40;13.53;;;21.70;99.90;;;;;;5084007;28;20416;-84
2023/09/11 04:37:21;;;;;;;15.70;12.70;;;21.70;99.90;;;;;;5083127;28;20490;-80
2023/09/11 04:39:47;;;;;;;18.17;12.70;;;21.60;99.90;;;;;;5082176;28;20204;-83
2023/09/11 04:42:12;;;;;;;20.73;13.27;;;21.60;99.90;;;;;;5070772;28;20196;-83
2023/09/11 04:44:38;;;;;;;18.23;13.97;;;21.50;99.90;;;;;;5071955;28;20188;-84
2023/09/11 04:47:03;;;;;;;21.27;14.00;;;21.50;99.90;;;;;;5078127;28;20563;-82
2023/09/11 04:49:29;;;;;;;25.53;14.40;;;21.40;99.90;;;;;;5078388;28;20209;-83
2023/09/11 04:51:54;;;;;;;18.30;14.70;;;21.20;99.90;;;;;;5079141;28;20259;-82
2023/09/11 04:54:20;;;;;;;18.30;12.87;;;21.20;99.90;;;;;;5079942;28;20433;-83
2023/09/11 04:56:45;;;;;;;18.10;13.53;;;21.20;99.90;;;;;;5074700;28;20192;-83
2023/09/11 04:59:11;;;;;;;20.53;12.80;;;21.20;99.90;;;;;;5070083;28;20243;-82
2023/09/11 05:01:37;;;;;;;21.70;13.37;;;21.20;99.90;;;;;;5078941;28;20188;-80
2023/09/11 05:04:03;;;;;;;21.50;13.60;;;21.30;10.10;;;;;;5076418;28;20185;-83
2023/09/11 05:06:30;;;;;;;16.73;12.97;;;21.30;1.00;;;;;;5074957;28;20663;-83
2023/09/11 05:08:55;;;;;;;16.20;12.33;;;21.30;1.00;;;;;;5075553;28;20439;-82
2023/09/11 05:11:21;;;;;;;14.17;12.67;;;21.30;1.00;;;;;;5075625;28;20455;-83
2023/09/11 05:13:46;;;;;;;15.30;13.70;;;21.40;1.00;;;;;;5070230;28;20701;-83
2023/09/11 05:16:12;;;;;;;20.67;15.20;;;21.40;99.90;;;;;;5071836;28;20189;-82
2023/09/11 05:18:37;;;;;;;19.40;15.40;;;21.40;1.00;;;;;;5075747;28;20204;-81
2023/09/11 05:21:03;;;;;;;22.60;15.67;;;21.40;34.90;;;;;;5071735;28;20196;-81
2023/09/11 05:23:29;;;;;;;21.30;14.50;;;21.40;1.00;;;;;;5068227;28;20558;-80
2023/09/11 05:25:54;;;;;;;27.30;15.87;;;21.40;1.00;;;;;;5073835;28;20283;-81
2023/09/11 05:28:20;;;;;;;29.23;15.93;;;21.40;50.70;;;;;;5070326;28;20659;-83
2023/09/11 05:30:45;;;;;;;22.33;15.43;;;21.50;29.50;;;;;;5069106;28;20198;-81
2023/09/11 05:33:11;;;;;;;27.23;13.83;;;21.50;1.00;;;;;;5064932;28;20662;-81
2023/09/11 05:35:38;;;;;;;28.63;14.63;;;21.70;99.90;;;;;;5060450;28;20190;-81
2023/09/11 05:38:04;;;;;;;23.27;13.70;;;;;;;;;;5060742;28;20197;-80
2023/09/11 05:40:29;;;;;;;16.67;13.87;;;21.90;99.90;;;;;;5071211;28;20459;-81
2023/09/11 05:42:55;;;;;;;20.70;13.60;;;22.20;1.00;;;;;;5069513;28;20438;-82
2023/09/11 05:45:20;;;;;;;21.40;14.50;;;23.20;99.90;;;;;;5070391;28;20554;-82
2023/09/11 05:47:46;;;;;;;18.50;12.37;;;24.70;36.80;;;;;;5067084;28;20193;-82
2023/09/11 05:50:12;;;;;;;14.00;11.60;;;26.40;99.90;;;;;;5073212;28;20220;-82
2023/09/11 05:52:37;;;;;;;21.93;11.20;;;;;;;;;;5058927;28;20193;-83
2023/09/11 05:55:03;;;;;;;19.83;11.30;;;;;;;;;;5075389;28;20248;-84
2023/09/11 05:57:32;;;;;;;14.47;10.30;;;30.20;27.10;;;;;;5075589;28;20510;-83
2023/09/11 05:59:57;;;;;;;11.60;9.77;;;31.20;1.00;;;;;;5074407;28;20973;-83
2023/09/11 06:02:23;;;;;;;11.33;9.40;;;32.50;1.00;;;;;;5072659;28;20508;-82
2023/09/11 06:04:48;;;;;;;12.90;8.60;;;34.00;1.00;;;;;;5075657;28;20272;-81
2023/09/11 06:07:16;;;;;;;15.83;9.10;;;35.40;1.00;;;;;;5073688;28;20643;-81
2023/09/11 06:09:42;;;;;;;16.27;9.00;;;36.60;1.00;;;;;;5074195;28;20201;-82
2023/09/11 06:12:07;;;;;;;10.87;8.43;;;37.80;1.00;;;;;;5071175;28;20446;-81
2023/09/11 06:14:37;;;;;;;10.70;6.90;;;38.90;1.00;;;;;;5073308;28;20191;-81
2023/09/11 06:17:04;;;;;;;9.83;7.07;;;40.00;1.00;;;;;;5070295;28;20268;-81
2023/09/11 06:19:30;;;;;;;9.10;7.00;;;40.80;1.00;;;;;;5062081;28;21349;-82
2023/09/11 06:21:56;;;;;;;15.17;7.33;;;41.70;1.00;;;;;;5069570;28;20531;-80
2023/09/11 06:24:21;;;;;;;12.60;7.20;;;42.70;1.00;;;;;;5072166;28;20177;-81
2023/09/11 06:26:47;;;;;;;19.50;7.03;;;43.50;1.00;;;;;;5073218;28;20180;-81
2023/09/11 06:29:13;;;;;;;9.10;7.03;;;44.00;99.90;;;;;;5071205;28;20299;-80
2023/09/11 06:31:39;;;;;;;10.13;7.67;;;44.70;99.90;;;;;;5070527;28;20668;-83
2023/09/11 06:34:04;;;;;;;13.33;6.80;;;45.20;99.90;;;;;;5068736;28;20451;-82
2023/09/11 06:36:30;;;;;;;12.27;6.17;;;45.10;99.90;;;;;;5070667;28;20180;-83
2023/09/11 06:38:55;;;;;;;8.73;6.57;;;45.20;99.90;;;;;;5072251;28;20232;-83
2023/09/11 06:41:21;;;;;;;10.80;7.60;;;44.70;99.90;;;;;;5071345;28;20327;-82
2023/09/11 06:43:46;;;;;;;9.47;7.33;;;44.70;99.90;;;;;;5070819;28;20263;-82
2023/09/11 06:46:12;;;;;;;11.27;6.90;;;44.50;99.90;;;;;;5069906;28;20200;-82
2023/09/11 06:48:37;;;;;;;10.40;6.40;;;45.20;99.90;;;;;;5070737;28;20185;-82
2023/09/11 06:51:03;;;;;;;8.60;6.60;;;46.30;99.90;;;;;;5067263;28;20207;-82
2023/09/11 06:53:28;;;;;;;14.60;6.90;;;47.60;99.90;;;;;;5067735;28;20189;-79
2023/09/11 06:55:55;;;;;;;11.47;5.67;;;47.40;1.00;;;;;;5071508;28;20558;-82
2023/09/11 06:58:21;;;;;;;13.23;6.80;;;47.30;1.00;;;;;;5062767;28;20598;-83
2023/09/11 07:00:46;;;;;;;12.70;6.53;;;47.40;1.00;;;;;;5071710;28;20455;-84
2023/09/11 07:03:12;;;;;;;16.20;6.90;;;46.50;1.00;;;;;;5064431;28;20230;-82
2023/09/11 07:05:38;;;;;;;8.07;5.83;;;47.70;1.00;;;;;;5067140;28;20181;-82
2023/09/11 07:08:04;;;;;;;10.73;5.43;;;48.70;1.00;;;;;;5054487;28;20295;-82
2023/09/11 07:10:29;;;;;;;12.67;6.37;;;49.80;1.00;;;;;;5056693;28;20550;-81
2023/09/11 07:12:55;;;;;;;13.90;7.30;;;50.70;99.90;;;;;;5061980;28;20588;-83
2023/09/11 07:15:20;;;;;;;12.57;6.07;;;51.40;99.90;;;;;;5066535;28;20716;-82
2023/09/11 07:17:48;;;;;;;11.10;5.67;;;50.20;99.90;;;;;;5061602;28;20542;-82
2023/09/11 07:20:14;;;;;;;6.80;5.67;;;49.90;99.90;;;;;;5061679;28;20197;-83
2023/09/11 07:22:40;;;;;;;9.53;6.23;;;50.70;99.90;;;;;;5067656;28;21007;-84
2023/09/11 07:25:11;;;;;;;7.97;5.43;;;51.60;99.90;;;;;;5062570;28;20200;-83
2023/09/11 07:27:37;;;;;;;12.03;6.20;;;50.90;99.90;;;;;;5062234;28;20666;-82
2023/09/11 07:30:08;;;;;;;10.20;6.40;;;49.90;99.90;;;;;;5064144;28;20477;-83
2023/09/11 07:32:34;;;;;;;12.07;6.63;;;49.80;99.90;;;;;;5086535;28;20446;-83
2023/09/11 07:34:59;;;;;;;12.73;6.53;;;49.90;99.90;;;;;;5069339;28;20447;-82
2023/09/11 07:37:25;;;;;;;18.97;6.70;;;49.60;99.90;;;;;;5063710;28;20643;-82
2023/09/11 07:39:50;;;;;;;11.07;6.40;;;49.70;99.90;;;;;;5068427;28;20561;-83
2023/09/11 07:42:16;;;;;;;20.20;6.90;;;50.30;99.90;;;;;;5061220;28;20553;-80
2023/09/11 07:44:43;;;;;;;12.97;6.10;;;51.00;99.90;;;;;;5065808;28;20196;-82
2023/09/11 07:47:08;;;;;;;14.60;6.20;;;51.90;99.90;;;;;;5060430;28;20188;-82
2023/09/11 07:49:34;;;;;;;16.13;5.30;;;52.50;99.90;;;;;;5065476;28;20209;-84
2023/09/11 07:52:00;;;;;;;11.17;5.70;;;53.30;99.90;;;;;;5061615;28;20192;-82
2023/09/11 07:54:25;;;;;;;13.07;5.53;;;54.00;99.90;;;;;;5068835;28;20269;-83
2023/09/11 07:56:52;;;;;;;9.82;5.00;;;54.20;99.90;;;;;;5065905;28;20195;-82
2023/09/11 07:59:18;;;;;;;7.97;4.82;;;54.50;99.90;;;;;;5067275;28;20185;-84
2023/09/11 08:01:43;;;;;;;6.55;4.82;;;54.70;99.90;;;;;;5065386;28;20238;-83
2023/09/11 08:04:09;;;;;;;11.52;5.13;;;55.00;99.90;;;;;;5070621;28;20212;-82
2023/09/11 08:06:34;;;;;;;9.43;4.85;;;55.10;99.90;;;;;;5065827;28;20736;-83
2023/09/11 08:09:03;;;;;;;7.57;4.80;;;55.00;99.90;;;;;;5067762;28;20208;-81
2023/09/11 08:11:39;;;;;;;12.32;4.82;;;55.40;99.90;;;;;;5070558;28;20247;-83
2023/09/11 08:14:05;;;;;;;10.85;4.57;;;55.60;99.90;;;;;;5069819;28;20181;-81
2023/09/11 08:16:31;;;;;;;8.55;4.00;;;55.60;99.90;;;;;;5071538;28;20181;-83
2023/09/11 08:18:56;;;;;;;7.72;4.70;;;55.70;99.90;;;;;;5061648;28;20586;-84
2023/09/11 08:21:22;;;;;;;8.20;4.40;;;56.10;99.90;;;;;;5063611;28;20213;-82
2023/09/11 08:23:47;;;;;;;6.45;3.72;;;55.90;99.90;;;;;;5068470;28;20226;-84
2023/09/11 08:26:13;;;;;;;7.82;4.05;;;55.40;99.90;;;;;;5065591;28;20185;-84
2023/09/11 08:28:39;;;;;;;10.52;5.10;;;55.30;99.90;;;;;;5064938;28;20269;-82
2023/09/11 08:31:04;;;;;;;13.75;4.88;;;55.40;99.90;;;;;;5067712;28;20216;-80
2023/09/11 08:33:30;;;;;;;10.02;3.85;;;55.50;99.90;;;;;;5068381;28;20188;-81
2023/09/11 08:35:56;;;;;;;23.10;5.03;;;55.50;99.90;;;;;;5070707;28;20180;-82
2023/09/11 08:38:22;;;;;;;6.95;3.53;;;55.50;99.90;;;;;;5066614;28;20204;-82
2023/09/11 08:40:48;;;;;;;6.32;4.38;;;55.30;99.90;;;;;;5062929;28;20219;-82
2023/09/11 08:43:14;;;;;;;7.50;3.70;;;55.40;99.90;;;;;;5056981;28;20208;-82
2023/09/11 08:45:40;;;;;;;5.05;3.60;;;55.50;99.90;;;;;;5067608;28;20609;-83
2023/09/11 08:48:16;;;;;;;7.28;4.20;;;55.50;99.90;;;;;;5064169;28;20737;-82
2023/09/11 08:50:48;;;;;;;8.20;4.63;;;55.30;99.90;;;;;;5071671;28;20291;-83
2023/09/11 08:53:17;;;;;;;8.30;4.57;;;55.30;99.90;;;;;;5071847;28;20811;-82
2023/09/11 08:55:43;;;;;;;7.22;3.92;;;55.20;99.90;;;;;;5071258;28;20602;-82
2023/09/11 08:58:13;;;;;;;9.35;4.85;;;55.30;99.90;;;;;;5071323;28;20262;-82
2023/09/11 09:00:38;;;;;;;5.22;3.97;;;55.00;99.90;;;;;;5070343;28;20205;-82
2023/09/11 09:03:05;;;;;;;9.68;4.13;;;55.00;99.90;;;;;;5076631;28;20211;-83
2023/09/11 09:05:32;;;;;;;7.03;4.28;;;55.10;99.90;;;;;;5073169;28;20208;-82
2023/09/11 09:07:59;;;;;;;9.63;4.25;;;54.50;99.90;;;;;;5065495;28;20570;-82
2023/09/11 09:10:25;;;;;;;8.77;4.03;;;54.30;99.90;;;;;;5067661;28;20713;-82
2023/09/11 09:12:52;;;;;;;10.88;4.03;;;54.20;99.90;;;;;;5070710;28;20577;-80
2023/09/11 09:15:20;;;;;;;6.90;4.65;;;54.40;99.90;;;;;;5055660;28;20181;-82
2023/09/11 09:17:46;;;;;;;12.15;4.18;;;54.40;99.90;;;;;;5078031;28;20292;-82
2023/09/11 09:20:13;;;;;;;6.40;4.72;;;54.50;99.90;;;;;;5070953;28;20296;-82
2023/09/11 09:22:58;;;;;;;9.65;3.83;;;54.80;99.90;;;;;;5069395;28;20173;-82
2023/09/11 09:25:25;;;;;;;8.50;4.03;;;54.80;99.90;;;;;;5060809;28;20180;-82
2023/09/11 09:27:51;;;;;;;9.48;4.40;;;54.90;99.90;;;;;;5073822;28;20196;-82
2023/09/11 09:30:20;;;;;;;6.90;4.50;;;54.90;99.90;;;;;;5062931;28;20228;-82
2023/09/11 09:32:48;;;;;;;7.50;3.90;;;54.80;99.90;;;;;;5071893;28;20185;-82
2023/09/11 09:35:13;;;;;;;7.25;3.90;;;54.50;99.90;;;;;;5070970;28;20184;-81
2023/09/11 09:37:39;;;;;;;6.70;4.85;;;54.80;99.90;;;;;;5067377;28;20208;-82
2023/09/11 09:40:06;;;;;;;8.60;4.05;;;54.70;99.90;;;;;;5068396;28;20249;-82
2023/09/11 09:42:40;;;;;;;7.75;3.83;;;54.80;99.90;;;;;;5053878;28;20193;-82
2023/09/11 09:45:06;;;;;;;7.05;4.05;;;54.90;99.90;;;;;;5079401;28;20215;-82
2023/09/11 09:47:31;;;;;;;6.50;4.32;;;55.00;99.90;;;;;;5065657;28;20180;-83
2023/09/11 09:49:58;;;;;;;6.93;3.90;;;55.10;99.90;;;;;;5070928;28;20245;-82
2023/09/11 09:52:28;;;;;;;9.18;4.07;;;55.20;99.90;;;;;;5071620;28;20188;-81
2023/09/11 09:54:59;;;;;;;8.82;4.47;;;55.50;99.90;;;;;;5067616;28;20173;-80
2023/09/11 09:57:27;;;;;;;6.60;3.58;;;55.70;99.90;;;;;;5059084;28;20209;-82
2023/09/11 09:59:55;;;;;;;7.35;3.80;;;55.80;99.90;;;;;;5071223;28;20887;-82
2023/09/11 10:02:27;;;;;;;7.28;4.00;;;56.00;99.90;;;;;;5068684;28;20188;-80
2023/09/11 10:04:57;;;;;;;15.70;4.30;;;56.00;99.90;;;;;;5062797;28;20605;-82
2023/09/11 10:07:38;;;;;;;8.10;3.67;;;56.00;99.90;;;;;;5060329;28;20892;-81
2023/09/11 10:10:28;;;;;;;7.40;3.17;;;55.80;99.90;;;;;;5055205;28;22131;-82
2023/09/11 10:13:00;;;;;;;6.13;3.70;;;55.80;99.90;;;;;;5070500;28;20184;-80
2023/09/11 10:15:25;;;;;;;8.07;4.60;;;56.00;99.90;;;;;;5068481;28;20674;-83
2023/09/11 10:17:54;;;;;;;7.15;4.82;;;55.70;99.90;;;;;;5065826;28;20223;-82
2023/09/11 10:20:20;;;;;;;10.23;3.92;;;55.70;99.90;;;;;;5060756;28;20215;-82
2023/09/11 10:22:46;;;;;;;8.82;4.40;;;55.30;99.90;;;;;;5065169;28;20272;-82
2023/09/11 10:25:12;;;;;;;6.47;4.07;;;54.80;99.90;;;;;;5084455;28;20173;-81
2023/09/11 10:27:38;;;;;;;8.32;3.97;;;54.20;99.90;;;;;;5067842;28;20255;-82
2023/09/11 10:30:06;;;;;;;8.30;4.45;;;53.90;99.90;;;;;;5068618;28;20249;-82
2023/09/11 10:32:49;;;;;;;4.32;3.78;;;53.60;99.90;;;;;;5066614;28;20185;-82
2023/09/11 10:35:15;;;;;;;5.23;3.90;;;53.30;99.90;;;;;;5066521;28;20209;-83
2023/09/11 10:37:42;;;;;;;6.70;3.93;;;52.80;99.90;;;;;;5054034;28;20609;-80
2023/09/11 10:40:15;;;;;;;8.07;4.43;;;52.80;99.90;;;;;;5058556;28;20810;-82
2023/09/11 10:42:41;;;;;;;5.73;4.27;;;52.90;99.90;;;;;;5068853;28;20235;-80
2023/09/11 10:45:25;;;;;;;8.52;4.03;;;53.10;99.90;;;;;;5067809;28;20238;-82
2023/09/11 10:47:50;;;;;;;10.07;4.80;;;52.90;99.90;;;;;;5062718;28;20200;-82
2023/09/11 10:50:16;;;;;;;13.53;4.50;;;53.00;99.90;;;;;;5062894;28;20200;-82
2023/09/11 10:52:43;;;;;;;8.43;3.90;;;52.90;99.90;;;;;;5062760;28;20271;-82
2023/09/11 10:55:09;;;;;;;8.20;4.73;;;52.70;99.90;;;;;;5070090;28;20184;-82
2023/09/11 10:57:35;;;;;;;7.50;3.90;;;52.50;99.90;;;;;;5070090;28;20971;-83
2023/09/11 11:00:05;;;;;;;7.47;4.17;;;52.40;99.90;;;;;;5069374;28;20583;-82
2023/09/11 11:02:30;;;;;;;6.23;4.67;;;52.40;99.90;;;;;;5064628;28;20230;-82
2023/09/11 11:05:03;;;;;;;10.00;4.43;;;52.10;99.90;;;;;;5060139;28;20184;-84
2023/09/11 11:07:28;;;;;;;6.53;5.30;;;52.00;99.90;;;;;;5067601;28;20177;-81
2023/09/11 11:09:54;;;;;;;7.47;4.50;;;52.20;99.90;;;;;;5068396;28;20628;-82
2023/09/11 11:12:33;;;;;;;12.70;5.33;;;51.90;99.90;;;;;;5068818;28;20181;-83
2023/09/11 11:15:19;;;;;;;12.07;5.00;;;52.20;99.90;;;;;;5066801;28;20252;-82
2023/09/11 11:17:44;;;;;;;7.77;4.77;;;52.00;99.90;;;;;;5069509;28;20199;-81
2023/09/11 11:20:11;;;;;;;6.87;4.00;;;51.80;99.90;;;;;;5067135;28;20204;-82
2023/09/11 11:22:40;;;;;;;10.40;4.80;;;51.50;99.90;;;;;;5067237;28;20180;-82
2023/09/11 11:25:10;;;;;;;8.37;5.10;;;51.60;99.90;;;;;;5061297;28;20557;-81
2023/09/11 11:27:38;;;;;;;7.53;5.20;;;51.70;99.90;;;;;;5066389;28;20187;-83
2023/09/11 11:30:07;;;;;;;7.30;4.57;;;51.60;99.90;;;;;;5062993;28;20200;-84
2023/09/11 11:32:41;;;;;;;9.30;4.97;;;51.60;99.90;;;;;;5057044;28;20208;-82
2023/09/11 11:35:09;;;;;;;8.88;4.80;;;51.70;99.90;;;;;;5068247;28;20676;-82
2023/09/11 11:37:44;;;;;;;9.67;5.17;;;51.50;99.90;;;;;;5065422;28;20204;-85
2023/09/11 11:40:10;;;;;;;9.43;5.40;;;51.20;99.90;;;;;;5061916;28;20200;-84
2023/09/11 11:42:40;;;;;;;8.60;4.77;;;51.40;99.90;;;;;;5068311;28;20193;-84
2023/09/11 11:45:06;;;;;;;12.70;4.83;;;51.20;99.90;;;;;;5069151;28;20219;-84
2023/09/11 11:47:34;;;;;;;9.33;5.20;;;51.20;99.90;;;;;;5070417;28;20189;-82
2023/09/11 11:50:08;;;;;;;8.30;5.20;;;51.20;99.90;;;;;;5066292;28;20327;-83
2023/09/11 11:52:34;;;;;;;7.80;4.80;;;51.00;99.90;;;;;;5068649;28;20192;-84
2023/09/11 11:55:00;;;;;;;8.80;5.10;;;50.80;99.90;;;;;;5066960;28;20196;-82
2023/09/11 11:57:26;;;;;;;7.37;5.10;;;50.70;99.90;;;;;;5063006;28;20610;-85
2023/09/11 11:59:52;;;;;;;9.87;5.30;;;50.30;99.90;;;;;;5070770;28;20196;-83
2023/09/11 12:02:21;;;;;;;12.97;5.57;;;50.10;99.90;;;;;;5071146;28;20431;-84
2023/09/11 12:04:50;;;;;;;11.43;5.10;;;49.90;99.90;;;;;;5071676;28;20666;-83
2023/09/11 12:07:15;;;;;;;7.33;4.47;;;49.40;99.90;;;;;;5057083;28;20766;-81
2023/09/11 12:09:41;;;;;;;38.97;9.03;;;49.30;99.90;;;;;;5063903;28;20478;-84
2023/09/11 12:12:07;;;;;;;11.30;5.27;;;48.80;99.90;;;;;;5071551;28;20188;-84
2023/09/11 12:14:33;;;;;;;11.20;5.60;;;48.70;99.90;;;;;;5062625;28;20182;-83
2023/09/11 12:16:58;;;;;;;9.27;5.70;;;48.70;99.90;;;;;;5061064;28;20573;-84
2023/09/11 12:19:24;;;;;;;13.90;5.90;;;48.70;99.90;;;;;;5057293;28;20220;-84
2023/09/11 12:21:55;;;;;;;23.27;6.40;;;48.50;99.90;;;;;;5054339;28;20220;-84
2023/09/11 12:24:21;;;;;;;6.40;4.83;;;48.50;99.90;;;;;;5056531;28;20180;-83
2023/09/11 12:26:46;;;;;;;6.57;4.70;;;48.30;99.90;;;;;;5054283;28;21963;-83
2023/09/11 12:29:12;;;;;;;9.10;5.53;;;48.10;99.90;;;;;;5061137;28;20181;-82
2023/09/11 12:31:38;;;;;;;12.73;5.63;;;48.00;99.90;;;;;;5067295;28;20330;-82
2023/09/11 12:34:06;;;;;;;13.10;5.20;;;48.00;99.90;;;;;;5065604;28;20188;-83
2023/09/11 12:36:33;;;;;;;14.93;5.90;;;47.70;99.90;;;;;;5063522;28;20188;-82